createdAt,value
2019-05-11T00:01:24.263Z,3.55
2019-05-11T00:03:57.572Z,2.58
2019-05-11T00:06:30.900Z,3.45
2019-05-11T00:09:05.189Z,1.42
2019-05-11T00:11:39.603Z,3.47
2019-05-11T00:14:12.880Z,3.02
2019-05-11T00:16:46.218Z,4.00
2019-05-11T00:19:19.534Z,3.58
2019-05-11T00:21:52.873Z,2.12
2019-05-11T00:24:29.377Z,2.05
2019-05-11T00:27:02.299Z,3.27
2019-05-11T00:29:35.638Z,2.70
2019-05-11T00:32:09.057Z,2.47
2019-05-11T00:34:42.373Z,4.15
2019-05-11T00:37:18.408Z,2.45
2019-05-11T00:39:51.768Z,2.75
2019-05-11T00:42:25.117Z,3.33
2019-05-11T00:45:00.028Z,4.25
2019-05-11T00:47:33.369Z,3.22
2019-05-11T00:50:08.299Z,3.08
2019-05-11T00:52:41.646Z,3.75
2019-05-11T00:55:14.943Z,4.00
2019-05-11T00:57:49.896Z,3.17
2019-05-11T01:00:23.217Z,3.17
2019-05-11T01:02:56.565Z,4.10
2019-05-11T01:05:29.864Z,2.42
2019-05-11T01:08:04.269Z,2.37
2019-05-11T01:10:42.019Z,2.85
2019-05-11T01:13:12.618Z,3.17
2019-05-11T01:15:45.922Z,4.53
2019-05-11T01:18:19.254Z,2.50
2019-05-11T01:20:52.586Z,3.62
2019-05-11T01:23:25.887Z,2.52
2019-05-11T01:25:59.208Z,3.30
2019-05-11T01:28:32.330Z,2.45
2019-05-11T01:31:05.633Z,2.55
2019-05-11T01:33:39.006Z,2.52
2019-05-11T01:36:12.298Z,5.15
2019-05-11T01:38:45.732Z,2.12
2019-05-11T01:41:19.044Z,4.63
2019-05-11T01:43:52.389Z,2.55
2019-05-11T01:46:25.691Z,4.35
2019-05-11T01:48:59.018Z,3.70
2019-05-11T01:51:32.314Z,4.15
2019-05-11T01:54:05.626Z,4.17
2019-05-11T01:56:40.594Z,3.12
2019-05-11T01:59:13.949Z,3.95
2019-05-11T02:01:47.253Z,3.72
2019-05-11T02:04:20.591Z,2.62
2019-05-11T02:06:53.922Z,3.42
2019-05-11T02:09:27.600Z,2.37
2019-05-11T02:12:00.885Z,3.62
2019-05-11T02:14:34.233Z,1.72
2019-05-11T02:17:07.544Z,4.60
2019-05-11T02:19:40.862Z,2.05
2019-05-11T02:22:14.178Z,3.40
2019-05-11T02:24:47.593Z,3.87
2019-05-11T02:27:20.920Z,3.17
2019-05-11T02:29:54.235Z,2.65
2019-05-11T02:32:27.586Z,3.00
2019-05-11T02:35:00.919Z,2.12
2019-05-11T02:37:34.566Z,1.77
2019-05-11T02:40:07.890Z,3.00
2019-05-11T02:42:41.292Z,2.85
2019-05-11T02:45:14.671Z,2.37
2019-05-11T02:47:48.023Z,3.52
2019-05-11T02:50:21.331Z,3.35
2019-05-11T02:52:54.673Z,1.82
2019-05-11T02:55:28.009Z,3.12
2019-05-11T02:58:01.468Z,4.53
2019-05-11T03:00:42.245Z,4.33
2019-05-11T03:03:15.600Z,4.22
2019-05-11T03:05:48.908Z,3.50
2019-05-11T03:08:22.530Z,3.72
2019-05-11T03:10:55.835Z,2.62
2019-05-11T03:13:29.172Z,3.10
2019-05-11T03:16:02.618Z,3.05
2019-05-11T03:18:35.921Z,1.30
2019-05-11T03:21:09.244Z,2.37
2019-05-11T03:23:42.632Z,2.92
2019-05-11T03:26:15.951Z,3.05
2019-05-11T03:28:49.506Z,2.65
2019-05-11T03:31:22.883Z,2.25
2019-05-11T03:33:56.216Z,3.50
2019-05-11T03:36:30.631Z,1.80
2019-05-11T03:39:04.413Z,1.75
2019-05-11T03:41:37.741Z,3.37
2019-05-11T03:44:11.201Z,3.42
2019-05-11T03:46:44.519Z,2.75
2019-05-11T03:49:17.847Z,2.65
2019-05-11T03:51:52.730Z,2.62
2019-05-11T03:54:26.069Z,2.95
2019-05-11T03:56:59.367Z,3.45
2019-05-11T03:59:32.738Z,3.20
2019-05-11T04:02:06.030Z,2.52
2019-05-11T04:04:39.370Z,1.40
2019-05-11T04:07:12.682Z,3.10
2019-05-11T04:09:46.308Z,2.37
2019-05-11T04:12:34.289Z,3.10
2019-05-11T04:14:54.704Z,2.55
2019-05-11T04:17:28.028Z,1.65
2019-05-11T04:20:02.959Z,2.20
2019-05-11T04:22:36.315Z,2.47
2019-05-11T04:25:10.784Z,2.92
2019-05-11T04:27:44.164Z,3.52
2019-05-11T04:30:17.462Z,2.08
2019-05-11T04:32:50.801Z,2.67
2019-05-11T04:35:24.161Z,3.45
2019-05-11T04:37:57.490Z,2.80
2019-05-11T04:40:30.794Z,2.05
2019-05-11T04:43:04.126Z,3.40
2019-05-11T04:45:37.463Z,2.67
2019-05-11T04:48:10.947Z,3.00
2019-05-11T04:50:44.288Z,2.08
2019-05-11T04:53:18.589Z,4.30
2019-05-11T04:55:51.947Z,2.05
2019-05-11T04:58:25.240Z,3.50
2019-05-11T05:00:58.737Z,3.67
2019-05-11T05:03:40.694Z,3.72
2019-05-11T05:06:21.743Z,3.20
2019-05-11T05:08:42.099Z,3.15
2019-05-11T05:11:15.484Z,2.92
2019-05-11T05:13:48.807Z,3.20
2019-05-11T05:16:22.137Z,2.77
2019-05-11T05:18:55.441Z,3.87
2019-05-11T05:21:28.937Z,3.35
2019-05-11T05:24:02.308Z,2.58
2019-05-11T05:26:35.854Z,3.52
2019-05-11T05:29:09.201Z,2.87
2019-05-11T05:31:42.553Z,3.05
2019-05-11T05:34:15.871Z,2.72
2019-05-11T05:36:49.218Z,4.05
2019-05-11T05:39:22.504Z,3.37
2019-05-11T05:41:57.501Z,2.37
2019-05-11T05:44:31.022Z,2.50
2019-05-11T05:47:04.585Z,2.67
2019-05-11T05:49:37.941Z,4.45
2019-05-11T05:52:11.561Z,3.80
2019-05-11T05:54:44.885Z,2.55
2019-05-11T05:57:18.215Z,2.33
2019-05-11T05:59:52.906Z,3.40
2019-05-11T06:02:26.213Z,4.95
2019-05-11T06:04:59.575Z,6.47
2019-05-11T06:07:32.863Z,3.10
2019-05-11T06:10:06.733Z,2.50
2019-05-11T06:12:40.037Z,1.75
2019-05-11T06:15:13.363Z,1.95
2019-05-11T06:17:46.682Z,4.12
2019-05-11T06:20:20.029Z,3.72
2019-05-11T06:22:53.323Z,2.75
2019-05-11T06:25:27.689Z,3.37
2019-05-11T06:28:00.971Z,3.85
2019-05-11T06:30:34.309Z,7.65
2019-05-11T06:33:08.693Z,3.27
2019-05-11T06:35:42.063Z,2.65
2019-05-11T06:38:15.360Z,3.52
2019-05-11T06:40:48.694Z,3.52
2019-05-11T06:43:22.020Z,2.00
2019-05-11T06:45:55.628Z,3.40
2019-05-11T06:48:29.030Z,2.98
2019-05-11T06:51:02.402Z,2.60
2019-05-11T06:53:35.767Z,1.45
2019-05-11T06:56:09.105Z,2.87
2019-05-11T06:58:45.364Z,2.10
2019-05-11T07:01:17.536Z,4.30
2019-05-11T07:03:50.876Z,2.52
2019-05-11T07:06:28.154Z,2.55
2019-05-11T07:09:00.439Z,2.83
2019-05-11T07:11:33.958Z,3.60
2019-05-11T07:14:19.754Z,2.77
2019-05-11T07:16:43.688Z,4.13
2019-05-11T07:19:17.014Z,4.70
2019-05-11T07:21:50.356Z,5.65
2019-05-11T07:24:24.311Z,6.15
2019-05-11T07:26:57.663Z,4.75
2019-05-11T07:29:30.988Z,3.20
2019-05-11T07:32:13.680Z,4.20
2019-05-11T07:34:39.353Z,2.22
2019-05-11T07:37:12.724Z,3.33
2019-05-11T07:39:46.053Z,3.52
2019-05-11T07:42:19.531Z,3.62
2019-05-11T07:44:52.847Z,1.90
2019-05-11T07:47:27.766Z,3.67
2019-05-11T07:50:01.382Z,1.87
2019-05-11T07:52:37.838Z,2.25
2019-05-11T07:55:10.930Z,6.58
2019-05-11T07:57:44.284Z,2.98
2019-05-11T08:00:18.860Z,10.32
2019-05-11T08:02:52.239Z,7.00
2019-05-11T08:05:25.555Z,5.25
2019-05-11T08:07:59.623Z,11.28
2019-05-11T08:10:34.164Z,5.67
2019-05-11T08:13:09.188Z,3.65
2019-05-11T08:15:42.678Z,6.00
2019-05-11T08:18:16.027Z,7.58
2019-05-11T08:20:49.426Z,10.75
2019-05-11T08:23:22.768Z,5.70
2019-05-11T08:25:58.104Z,9.25
2019-05-11T08:28:31.199Z,8.88
2019-05-11T08:31:04.601Z,4.87
2019-05-11T08:33:38.937Z,10.40
2019-05-11T08:36:12.318Z,6.20
2019-05-11T08:38:48.085Z,5.40
2019-05-11T08:41:20.848Z,7.70
2019-05-11T08:43:54.223Z,5.05
2019-05-11T08:46:28.065Z,7.85
2019-05-11T08:49:01.484Z,3.65
2019-05-11T08:51:34.858Z,4.27
2019-05-11T08:54:09.061Z,3.50
2019-05-11T08:56:42.565Z,5.35
2019-05-11T08:59:18.437Z,3.52
2019-05-11T09:01:50.943Z,5.20
2019-05-11T09:04:24.341Z,3.15
2019-05-11T09:06:58.639Z,2.67
2019-05-11T09:09:32.221Z,3.58
2019-05-11T09:12:07.658Z,8.78
2019-05-11T09:14:40.595Z,11.40
2019-05-11T09:17:13.951Z,7.55
2019-05-11T09:19:48.070Z,6.80
2019-05-11T09:22:21.614Z,7.65
2019-05-11T09:24:58.108Z,9.00
2019-05-11T09:27:30.977Z,10.38
2019-05-11T09:30:08.292Z,7.45
2019-05-11T09:32:44.030Z,11.28
2019-05-11T09:35:18.870Z,8.55
2019-05-11T09:37:53.044Z,7.47
2019-05-11T09:40:28.454Z,6.47
2019-05-11T09:43:01.977Z,5.45
2019-05-11T09:45:47.440Z,3.52
2019-05-11T09:48:12.121Z,7.90
2019-05-11T09:50:45.441Z,5.22
2019-05-11T09:53:18.800Z,6.60
2019-05-11T09:55:52.152Z,4.00
2019-05-11T09:58:27.920Z,5.30
2019-05-11T10:01:00.804Z,4.70
2019-05-11T10:03:34.172Z,4.92
2019-05-11T10:06:08.356Z,3.72
2019-05-11T10:08:41.896Z,3.55
2019-05-11T10:11:15.271Z,5.75
2019-05-11T10:13:48.621Z,3.77
2019-05-11T10:16:21.938Z,2.72
2019-05-11T10:18:55.259Z,5.57
2019-05-11T10:21:28.565Z,4.72
2019-05-11T10:24:01.952Z,4.13
2019-05-11T10:26:35.258Z,5.05
2019-05-11T10:29:08.746Z,3.90
2019-05-11T10:31:42.060Z,3.42
2019-05-11T10:34:17.769Z,6.97
2019-05-11T10:36:50.501Z,3.20
2019-05-11T10:39:23.833Z,5.08
2019-05-11T10:41:58.378Z,4.20
2019-05-11T10:44:31.986Z,5.72
2019-05-11T10:47:05.261Z,4.60
2019-05-11T10:49:38.433Z,5.60
2019-05-11T10:52:11.853Z,6.75
2019-05-11T10:54:47.641Z,3.62
2019-05-11T10:57:20.190Z,6.97
2019-05-11T10:59:53.535Z,2.85
2019-05-11T11:02:27.762Z,3.80
2019-05-11T11:05:01.743Z,3.62
2019-05-11T11:07:38.122Z,3.27
2019-05-11T11:10:10.623Z,2.70
2019-05-11T11:12:43.934Z,2.83
2019-05-11T11:15:18.271Z,2.50
2019-05-11T11:17:51.694Z,1.50
2019-05-11T11:20:25.022Z,2.35
2019-05-11T11:22:59.033Z,2.65
2019-05-11T11:25:33.758Z,1.87
2019-05-11T11:28:08.438Z,3.22
2019-05-11T11:30:42.051Z,3.42
2019-05-11T11:33:15.406Z,4.30
2019-05-11T11:35:48.854Z,2.58
2019-05-11T11:38:22.168Z,3.62
2019-05-11T11:40:55.510Z,2.85
2019-05-11T11:43:28.876Z,3.52
2019-05-11T11:46:02.147Z,3.47
2019-05-11T11:48:35.465Z,2.22
2019-05-11T11:51:08.799Z,2.00
2019-05-11T11:53:42.173Z,3.43
2019-05-11T11:56:15.529Z,3.52
2019-05-11T11:58:49.085Z,2.08
2019-05-11T12:01:22.485Z,3.40
2019-05-11T12:03:57.946Z,2.05
2019-05-11T12:06:30.880Z,2.67
2019-05-11T12:09:08.594Z,3.27
2019-05-11T12:11:42.796Z,5.20
2019-05-11T12:14:18.725Z,1.55
2019-05-11T12:17:03.946Z,2.08
2019-05-11T12:19:27.918Z,2.83
2019-05-11T12:22:01.420Z,6.72
2019-05-11T12:24:34.722Z,2.15
2019-05-11T12:27:08.051Z,3.20
2019-05-11T12:29:41.370Z,3.70
2019-05-11T12:32:14.720Z,2.40
2019-05-11T12:34:48.303Z,1.37
2019-05-11T12:37:22.139Z,3.62
2019-05-11T12:39:55.509Z,1.67
2019-05-11T12:42:28.856Z,2.08
2019-05-11T12:45:02.982Z,2.80
2019-05-11T12:47:38.376Z,3.00
2019-05-11T12:50:11.328Z,3.37
2019-05-11T12:52:44.681Z,3.10
2019-05-11T12:55:18.158Z,2.12
2019-05-11T12:57:51.492Z,2.83
2019-05-11T13:00:30.457Z,4.67
2019-05-11T13:03:00.528Z,3.42
2019-05-11T13:05:33.877Z,4.67
2019-05-11T13:08:08.005Z,3.67
2019-05-11T13:10:41.617Z,3.67
2019-05-11T13:13:14.994Z,2.85
2019-05-11T13:15:48.302Z,5.30
2019-05-11T13:18:21.719Z,3.58
2019-05-11T13:20:54.986Z,3.70
2019-05-11T13:23:29.375Z,3.75
2019-05-11T13:26:02.745Z,2.08
2019-05-11T13:28:37.786Z,5.10
2019-05-11T13:31:11.320Z,3.62
2019-05-11T13:33:44.720Z,3.75
2019-05-11T13:36:18.678Z,3.12
2019-05-11T13:38:52.277Z,3.20
2019-05-11T13:41:27.461Z,1.67
2019-05-11T13:44:00.622Z,3.60
2019-05-11T13:46:33.977Z,3.37
2019-05-11T13:49:08.602Z,5.17
2019-05-11T13:51:42.452Z,3.40
2019-05-11T13:54:18.242Z,2.65
2019-05-11T13:56:50.819Z,3.00
2019-05-11T13:59:24.131Z,2.62
2019-05-11T14:01:59.023Z,4.50
2019-05-11T14:04:32.333Z,3.90
2019-05-11T14:07:07.854Z,5.22
2019-05-11T14:09:40.774Z,4.95
2019-05-11T14:12:14.093Z,3.05
2019-05-11T14:14:48.159Z,5.95
2019-05-11T14:17:21.521Z,3.80
2019-05-11T14:19:54.970Z,2.12
2019-05-11T14:22:28.482Z,2.45
2019-05-11T14:25:01.796Z,3.98
2019-05-11T14:27:35.192Z,2.75
2019-05-11T14:30:08.745Z,2.50
2019-05-11T14:32:42.223Z,1.25
2019-05-11T14:35:15.524Z,1.45
2019-05-11T14:37:49.008Z,3.52
2019-05-11T14:40:22.302Z,3.15
2019-05-11T14:42:57.959Z,1.50
2019-05-11T14:45:30.654Z,3.77
2019-05-11T14:48:04.065Z,4.10
2019-05-11T14:50:38.572Z,4.15
2019-05-11T14:53:12.225Z,2.40
2019-05-11T14:55:45.524Z,3.45
2019-05-11T14:58:19.845Z,3.95
2019-05-11T15:00:54.530Z,3.35
2019-05-11T15:03:28.734Z,2.70
2019-05-11T15:06:02.390Z,1.25
2019-05-11T15:08:35.737Z,2.60
2019-05-11T15:11:09.130Z,2.08
2019-05-11T15:13:42.528Z,6.40
2019-05-11T15:16:15.970Z,5.10
2019-05-11T15:18:49.295Z,2.55
2019-05-11T15:21:22.609Z,2.70
2019-05-11T15:23:57.965Z,5.08
2019-05-11T15:26:30.954Z,1.50
2019-05-11T15:29:07.839Z,2.83
2019-05-11T15:31:40.445Z,1.85
2019-05-11T15:34:13.784Z,3.58
2019-05-11T15:36:49.047Z,3.05
2019-05-11T15:39:23.465Z,6.87
2019-05-11T15:42:09.224Z,2.08
2019-05-11T15:44:31.969Z,5.70
2019-05-11T15:47:07.600Z,3.00
2019-05-11T15:49:40.569Z,1.70
2019-05-11T15:52:13.901Z,3.33
2019-05-11T15:54:47.236Z,3.75
2019-05-11T15:57:20.595Z,4.10
2019-05-11T15:59:53.936Z,2.47
2019-05-11T16:02:28.904Z,2.37
2019-05-11T16:05:03.568Z,2.50
2019-05-11T16:07:38.438Z,2.70
2019-05-11T16:10:12.640Z,3.07
2019-05-11T16:12:48.326Z,2.72
2019-05-11T16:15:22.183Z,15.38
2019-05-11T16:17:57.679Z,20.72
2019-05-11T16:20:30.558Z,20.10
2019-05-11T16:23:04.424Z,42.38
2019-05-11T16:25:40.865Z,435.27
2019-05-11T16:28:13.883Z,555.42
2019-05-11T16:30:48.199Z,392.65
2019-05-11T16:33:21.667Z,282.83
2019-05-11T16:35:55.014Z,217.07
2019-05-11T16:38:29.196Z,151.00
2019-05-11T16:41:03.806Z,120.00
2019-05-11T16:43:38.513Z,137.35
2019-05-11T16:46:12.069Z,196.12
2019-05-11T16:48:45.392Z,211.18
2019-05-11T16:51:18.740Z,231.93
2019-05-11T16:53:52.086Z,247.35
2019-05-11T16:56:25.462Z,196.95
2019-05-11T16:58:58.990Z,157.27
2019-05-11T17:01:32.310Z,144.45
2019-05-11T17:04:05.647Z,129.90
2019-05-11T17:06:39.017Z,111.52
2019-05-11T17:09:12.339Z,99.58
2019-05-11T17:11:45.685Z,83.10
2019-05-11T17:14:18.991Z,67.42
2019-05-11T17:16:53.396Z,58.28
2019-05-11T17:19:42.269Z,59.70
2019-05-11T17:22:01.760Z,53.45
2019-05-11T17:24:37.761Z,52.73
2019-05-11T17:27:10.414Z,40.23
2019-05-11T17:29:43.821Z,31.73
2019-05-11T17:32:17.730Z,27.10
2019-05-11T17:34:51.192Z,25.20
2019-05-11T17:37:24.532Z,29.05
2019-05-11T17:39:58.683Z,26.75
2019-05-11T17:42:32.106Z,23.38
2019-05-11T17:45:08.096Z,18.52
2019-05-11T17:47:42.615Z,10.15
2019-05-11T17:50:15.943Z,7.50
2019-05-11T17:52:49.283Z,10.65
2019-05-11T17:55:22.602Z,7.45
2019-05-11T17:57:58.202Z,6.67
2019-05-11T18:00:30.990Z,4.28
2019-05-11T18:03:07.490Z,6.08
2019-05-11T18:05:39.661Z,3.17
2019-05-11T18:08:12.999Z,4.25
2019-05-11T18:10:47.928Z,4.45
2019-05-11T18:13:21.346Z,5.60
2019-05-11T18:15:54.685Z,3.40
2019-05-11T18:18:29.026Z,3.45
2019-05-11T18:21:03.735Z,3.37
2019-05-11T18:23:38.758Z,5.25
2019-05-11T18:26:12.268Z,4.65
2019-05-11T18:28:45.601Z,7.03
2019-05-11T18:31:18.923Z,4.72
2019-05-11T18:33:52.279Z,2.98
2019-05-11T18:36:25.591Z,3.37
2019-05-11T18:38:58.915Z,4.28
2019-05-11T18:41:32.268Z,3.25
2019-05-11T18:44:08.030Z,1.80
2019-05-11T18:46:40.755Z,2.80
2019-05-11T18:49:14.038Z,1.87
2019-05-11T18:51:48.380Z,2.40
2019-05-11T18:54:22.044Z,2.05
2019-05-11T18:56:55.379Z,2.65
2019-05-11T18:59:28.686Z,3.08
2019-05-11T19:02:02.010Z,3.27
2019-05-11T19:04:35.324Z,2.17
2019-05-11T19:07:16.267Z,3.05
2019-05-11T19:09:43.757Z,1.60
2019-05-11T19:12:18.746Z,2.85
2019-05-11T19:14:52.306Z,1.22
2019-05-11T19:17:25.654Z,2.10
2019-05-11T19:20:00.049Z,2.27
2019-05-11T19:22:33.399Z,2.15
2019-05-11T19:25:09.110Z,2.12
2019-05-11T19:27:42.167Z,1.45
2019-05-11T19:30:15.477Z,2.33
2019-05-11T19:32:49.012Z,1.55
2019-05-11T19:35:22.351Z,2.72
2019-05-11T19:37:57.774Z,4.15
2019-05-11T19:40:31.749Z,2.20
2019-05-11T19:43:05.090Z,7.20
2019-05-11T19:45:38.684Z,3.70
2019-05-11T19:48:12.147Z,3.00
2019-05-11T19:50:59.945Z,2.62
2019-05-11T19:53:20.472Z,4.22
2019-05-11T19:55:53.787Z,3.55
2019-05-11T19:58:28.975Z,2.50
2019-05-11T20:01:02.149Z,2.67
2019-05-11T20:03:37.704Z,4.10
2019-05-11T20:06:10.467Z,1.90
2019-05-11T20:08:43.815Z,2.55
2019-05-11T20:11:18.635Z,3.65
2019-05-11T20:13:52.177Z,1.45
2019-05-11T20:16:25.496Z,5.17
2019-05-11T20:18:58.859Z,2.08
2019-05-11T20:21:32.178Z,2.67
2019-05-11T20:24:05.504Z,2.00
2019-05-11T20:26:38.821Z,1.65
2019-05-11T20:29:12.304Z,2.60
2019-05-11T20:31:45.708Z,1.50
2019-05-11T20:34:19.041Z,1.45
2019-05-11T20:36:52.363Z,1.55
2019-05-11T20:39:28.499Z,3.08
2019-05-11T20:42:00.960Z,3.05
2019-05-11T20:44:34.103Z,1.05
2019-05-11T20:47:07.406Z,1.75
2019-05-11T20:49:40.753Z,2.37
2019-05-11T20:52:14.068Z,2.47
2019-05-11T20:54:47.811Z,1.67
2019-05-11T20:57:21.147Z,1.50
2019-05-11T20:59:54.576Z,2.25
2019-05-11T21:02:28.811Z,1.52
2019-05-11T21:05:03.197Z,1.70
2019-05-11T21:07:38.811Z,1.30
2019-05-11T21:10:12.569Z,2.37
2019-05-11T21:12:45.872Z,2.70
2019-05-11T21:15:19.220Z,1.35
2019-05-11T21:17:52.513Z,1.92
2019-05-11T21:20:25.937Z,5.05
2019-05-11T21:22:59.248Z,2.92
2019-05-11T21:25:32.604Z,3.12
2019-05-11T21:28:08.284Z,3.30
2019-05-11T21:30:40.960Z,1.00
2019-05-11T21:33:14.248Z,0.72
2019-05-11T21:35:48.872Z,2.90
2019-05-11T21:38:22.263Z,2.52
2019-05-11T21:40:57.826Z,3.80
2019-05-11T21:43:30.633Z,1.15
2019-05-11T21:46:04.014Z,1.67
2019-05-11T21:48:38.558Z,2.30
2019-05-11T21:51:12.221Z,3.62
2019-05-11T21:53:45.563Z,2.37
2019-05-11T21:56:18.975Z,2.37
2019-05-11T21:58:53.736Z,2.27
2019-05-11T22:01:28.147Z,1.77
2019-05-11T22:04:01.627Z,1.40
2019-05-11T22:06:35.112Z,2.15
2019-05-11T22:09:08.891Z,2.37
2019-05-11T22:11:42.213Z,0.80
2019-05-11T22:14:15.539Z,1.30
2019-05-11T22:16:49.021Z,0.55
2019-05-11T22:19:22.336Z,1.27
2019-05-11T22:21:58.138Z,2.60
2019-05-11T22:24:30.716Z,2.30
2019-05-11T22:27:04.052Z,22.02
2019-05-11T22:29:37.902Z,7.70
2019-05-11T22:32:11.368Z,2.37
2019-05-11T22:34:47.853Z,2.00
2019-05-11T22:37:20.866Z,2.47
2019-05-11T22:39:54.179Z,1.57
2019-05-11T22:42:28.163Z,0.72
2019-05-11T22:45:01.601Z,2.83
2019-05-11T22:47:35.025Z,1.65
2019-05-11T22:50:09.394Z,0.90
2019-05-11T22:52:43.056Z,1.90
2019-05-11T22:55:18.605Z,1.95
2019-05-11T22:57:51.381Z,1.98
2019-05-11T23:00:38.121Z,0.80
2019-05-11T23:03:11.642Z,1.75
2019-05-11T23:05:44.931Z,1.77
2019-05-11T23:08:18.347Z,2.92
2019-05-11T23:10:51.700Z,1.35
2019-05-11T23:13:25.196Z,2.55
2019-05-11T23:15:58.534Z,0.60
2019-05-11T23:18:31.851Z,1.20
2019-05-11T23:21:05.141Z,1.77
2019-05-11T23:23:38.463Z,2.02
2019-05-11T23:26:11.767Z,0.95
2019-05-11T23:28:45.332Z,0.95
2019-05-11T23:31:18.639Z,0.60
2019-05-11T23:33:51.976Z,0.60
2019-05-11T23:36:27.391Z,0.72
2019-05-11T23:39:00.545Z,0.88
2019-05-11T23:41:34.321Z,0.72
2019-05-11T23:44:08.848Z,1.02
2019-05-11T23:46:42.469Z,0.93
2019-05-11T23:49:17.790Z,0.88
2019-05-11T23:51:50.800Z,1.30
2019-05-11T23:54:24.146Z,3.52
2019-05-11T23:56:58.310Z,0.55
2019-05-11T23:59:31.767Z,2.95
